sensor_id;sensor_type;location;lat;lon;timestamp;pressure;altitude;pressure_sealevel;temperature;humidity
71938;BME280;59810;48.800;9.086;2023-04-28T00:00:28;97440.97;;;11.43;67.09
71938;BME280;59810;48.800;9.086;2023-04-28T00:02:54;97436.94;;;11.46;67.73
71938;BME280;59810;48.800;9.086;2023-04-28T00:05:19;97424.25;;;11.51;68.07
71938;BME280;59810;48.800;9.086;2023-04-28T00:07:47;97424.84;;;11.59;67.47
71938;BME280;59810;48.800;9.086;2023-04-28T00:10:13;97414.53;;;11.56;69.29
71938;BME280;59810;48.800;9.086;2023-04-28T00:12:38;97422.06;;;11.43;69.17
71938;BME280;59810;48.800;9.086;2023-04-28T00:15:04;97420.41;;;11.42;69.54
71938;BME280;59810;48.800;9.086;2023-04-28T00:17:29;97423.94;;;11.43;68.16
71938;BME280;59810;48.800;9.086;2023-04-28T00:19:54;97423.38;;;11.41;67.92
71938;BME280;59810;48.800;9.086;2023-04-28T00:22:20;97422.50;;;11.35;67.80
71938;BME280;59810;48.800;9.086;2023-04-28T00:24:45;97418.66;;;11.26;68.37
71938;BME280;59810;48.800;9.086;2023-04-28T00:27:10;97416.72;;;11.16;68.01
71938;BME280;59810;48.800;9.086;2023-04-28T00:29:36;97413.16;;;11.11;68.34
71938;BME280;59810;48.800;9.086;2023-04-28T00:32:01;97415.31;;;11.09;69.04
71938;BME280;59810;48.800;9.086;2023-04-28T00:34:33;97411.97;;;11.02;70.32
71938;BME280;59810;48.800;9.086;2023-04-28T00:37:02;97409.25;;;10.97;71.28
71938;BME280;59810;48.800;9.086;2023-04-28T00:39:30;97411.94;;;10.97;70.53
71938;BME280;59810;48.800;9.086;2023-04-28T00:41:56;97405.19;;;10.94;71.53
71938;BME280;59810;48.800;9.086;2023-04-28T00:44:22;97400.81;;;10.88;72.30
71938;BME280;59810;48.800;9.086;2023-04-28T00:46:47;97406.47;;;10.86;73.49
71938;BME280;59810;48.800;9.086;2023-04-28T00:49:15;97402.13;;;10.85;73.47
71938;BME280;59810;48.800;9.086;2023-04-28T00:51:41;97398.91;;;10.88;72.10
71938;BME280;59810;48.800;9.086;2023-04-28T00:54:06;97399.19;;;10.87;71.40
71938;BME280;59810;48.800;9.086;2023-04-28T00:56:35;97399.44;;;10.85;71.66
71938;BME280;59810;48.800;9.086;2023-04-28T00:59:03;97388.09;;;10.83;71.87
71938;BME280;59810;48.800;9.086;2023-04-28T01:01:31;97387.81;;;10.85;73.72
71938;BME280;59810;48.800;9.086;2023-04-28T01:03:56;97391.09;;;10.87;72.99
71938;BME280;59810;48.800;9.086;2023-04-28T01:06:24;97395.66;;;10.86;73.52
71938;BME280;59810;48.800;9.086;2023-04-28T01:08:52;97382.41;;;10.85;73.46
71938;BME280;59810;48.800;9.086;2023-04-28T01:11:19;97389.75;;;10.89;73.43
71938;BME280;59810;48.800;9.086;2023-04-28T01:13:49;97378.94;;;10.89;72.88
71938;BME280;59810;48.800;9.086;2023-04-28T01:16:16;97383.31;;;10.96;72.87
71938;BME280;59810;48.800;9.086;2023-04-28T01:18:46;97380.59;;;10.96;73.48
71938;BME280;59810;48.800;9.086;2023-04-28T01:21:12;97377.38;;;10.99;73.86
71938;BME280;59810;48.800;9.086;2023-04-28T01:23:37;97376.59;;;11.03;73.67
71938;BME280;59810;48.800;9.086;2023-04-28T01:26:05;97374.72;;;11.04;73.60
71938;BME280;59810;48.800;9.086;2023-04-28T01:28:31;97360.66;;;11.02;74.84
71938;BME280;59810;48.800;9.086;2023-04-28T01:30:58;97366.59;;;10.99;74.13
71938;BME280;59810;48.800;9.086;2023-04-28T01:33:24;97366.59;;;10.99;74.87
71938;BME280;59810;48.800;9.086;2023-04-28T01:35:51;97355.78;;;10.99;74.25
71938;BME280;59810;48.800;9.086;2023-04-28T01:38:23;97359.00;;;10.96;74.40
71938;BME280;59810;48.800;9.086;2023-04-28T01:40:48;97355.78;;;10.99;73.29
71938;BME280;59810;48.800;9.086;2023-04-28T01:43:14;97355.25;;;11.02;74.31
71938;BME280;59810;48.800;9.086;2023-04-28T01:45:41;97357.22;;;11.06;72.42
71938;BME280;59810;48.800;9.086;2023-04-28T01:48:07;97350.22;;;11.10;73.72
71938;BME280;59810;48.800;9.086;2023-04-28T01:50:32;97336.16;;;11.08;74.55
71938;BME280;59810;48.800;9.086;2023-04-28T01:52:59;97336.97;;;11.09;74.34
71938;BME280;59810;48.800;9.086;2023-04-28T01:58:49;97340.22;;;11.11;75.10
71938;BME280;59810;48.800;9.086;2023-04-28T02:01:14;97336.72;;;11.15;74.35
71938;BME280;59810;48.800;9.086;2023-04-28T02:03:39;97334.31;;;11.19;74.91
71938;BME280;59810;48.800;9.086;2023-04-28T02:06:05;97328.66;;;11.20;74.17
71938;BME280;59810;48.800;9.086;2023-04-28T02:08:30;97337.84;;;11.25;73.68
71938;BME280;59810;48.800;9.086;2023-04-28T02:10:56;97320.06;;;11.34;71.78
71938;BME280;59810;48.800;9.086;2023-04-28T02:13:22;97319.31;;;11.43;70.80
71938;BME280;59810;48.800;9.086;2023-04-28T02:15:48;97319.91;;;11.56;69.76
71938;BME280;59810;48.800;9.086;2023-04-28T02:18:18;97327.56;;;11.74;67.62
71938;BME280;59810;48.800;9.086;2023-04-28T02:20:43;97330.63;;;11.93;66.40
71938;BME280;59810;48.800;9.086;2023-04-28T02:23:11;97329.84;;;12.02;65.94
71938;BME280;59810;48.800;9.086;2023-04-28T02:25:38;97320.69;;;12.08;65.70
71938;BME280;59810;48.800;9.086;2023-04-28T02:28:03;97314.75;;;12.17;65.64
71938;BME280;59810;48.800;9.086;2023-04-28T02:30:29;97313.13;;;12.21;65.18
71938;BME280;59810;48.800;9.086;2023-04-28T02:32:54;97311.22;;;12.26;64.91
71938;BME280;59810;48.800;9.086;2023-04-28T02:35:19;97301.75;;;12.34;64.42
71938;BME280;59810;48.800;9.086;2023-04-28T02:37:44;97300.16;;;12.43;64.01
71938;BME280;59810;48.800;9.086;2023-04-28T02:40:11;97301.78;;;12.49;64.03
71938;BME280;59810;48.800;9.086;2023-04-28T02:42:36;97315.31;;;12.54;64.13
71938;BME280;59810;48.800;9.086;2023-04-28T02:45:04;97313.16;;;12.61;63.14
71938;BME280;59810;48.800;9.086;2023-04-28T02:47:29;97312.38;;;12.71;62.33
71938;BME280;59810;48.800;9.086;2023-04-28T02:49:54;97324.53;;;12.78;61.91
71938;BME280;59810;48.800;9.086;2023-04-28T02:52:20;97328.34;;;12.83;62.17
71938;BME280;59810;48.800;9.086;2023-04-28T02:54:45;97324.53;;;12.89;62.47
71938;BME280;59810;48.800;9.086;2023-04-28T02:57:13;97331.56;;;12.90;62.72
71938;BME280;59810;48.800;9.086;2023-04-28T02:59:38;97337.28;;;12.83;63.71
71938;BME280;59810;48.800;9.086;2023-04-28T03:02:04;97341.88;;;12.62;65.66
71938;BME280;59810;48.800;9.086;2023-04-28T03:04:30;97343.22;;;12.39;66.44
71938;BME280;59810;48.800;9.086;2023-04-28T03:06:55;97346.97;;;12.28;67.95
71938;BME280;59810;48.800;9.086;2023-04-28T03:09:20;97348.84;;;12.12;71.35
71938;BME280;59810;48.800;9.086;2023-04-28T03:11:48;97353.63;;;11.95;72.55
71938;BME280;59810;48.800;9.086;2023-04-28T03:14:13;97343.06;;;11.94;72.91
71938;BME280;59810;48.800;9.086;2023-04-28T03:16:41;97335.47;;;11.86;73.56
71938;BME280;59810;48.800;9.086;2023-04-28T03:19:09;97332.44;;;11.77;74.58
71938;BME280;59810;48.800;9.086;2023-04-28T03:21:34;97335.41;;;11.75;74.53
71938;BME280;59810;48.800;9.086;2023-04-28T03:23:59;97330.75;;;11.66;73.57
71938;BME280;59810;48.800;9.086;2023-04-28T03:26:25;97331.28;;;11.58;75.54
71938;BME280;59810;48.800;9.086;2023-04-28T03:28:50;97319.88;;;11.50;75.81
71938;BME280;59810;48.800;9.086;2023-04-28T03:31:15;97315.59;;;11.54;75.53
71938;BME280;59810;48.800;9.086;2023-04-28T03:33:41;97314.19;;;11.47;76.64
71938;BME280;59810;48.800;9.086;2023-04-28T03:36:06;97311.22;;;11.48;76.18
71938;BME280;59810;48.800;9.086;2023-04-28T03:38:34;97318.00;;;11.51;77.09
71938;BME280;59810;48.800;9.086;2023-04-28T03:40:59;97315.81;;;11.48;77.24
71938;BME280;59810;48.800;9.086;2023-04-28T03:43:26;97312.03;;;11.49;77.80
71938;BME280;59810;48.800;9.086;2023-04-28T03:45:54;97307.72;;;11.48;78.17
71938;BME280;59810;48.800;9.086;2023-04-28T03:48:20;97307.97;;;11.46;78.55
71938;BME280;59810;48.800;9.086;2023-04-28T03:50:47;97301.94;;;11.34;80.07
71938;BME280;59810;48.800;9.086;2023-04-28T03:53:12;97294.63;;;11.25;81.27
71938;BME280;59810;48.800;9.086;2023-04-28T03:55:37;97295.69;;;11.23;81.16
71938;BME280;59810;48.800;9.086;2023-04-28T03:58:05;97291.59;;;11.16;80.38
71938;BME280;59810;48.800;9.086;2023-04-28T04:00:37;97283.50;;;11.16;81.11
71938;BME280;59810;48.800;9.086;2023-04-28T04:03:03;97292.41;;;11.16;80.14
71938;BME280;59810;48.800;9.086;2023-04-28T04:05:28;97289.19;;;11.19;78.61
71938;BME280;59810;48.800;9.086;2023-04-28T04:07:54;97282.19;;;11.23;79.05
71938;BME280;59810;48.800;9.086;2023-04-28T04:10:24;97284.09;;;11.28;79.08
71938;BME280;59810;48.800;9.086;2023-04-28T04:12:49;97275.47;;;11.36;77.21
71938;BME280;59810;48.800;9.086;2023-04-28T04:15:17;97280.94;;;11.46;75.82
71938;BME280;59810;48.800;9.086;2023-04-28T04:17:42;97286.41;;;11.62;72.70
71938;BME280;59810;48.800;9.086;2023-04-28T04:20:08;97277.03;;;11.79;70.96
71938;BME280;59810;48.800;9.086;2023-04-28T04:22:36;97268.69;;;11.96;70.40
71938;BME280;59810;48.800;9.086;2023-04-28T04:25:03;97270.09;;;12.09;69.55
71938;BME280;59810;48.800;9.086;2023-04-28T04:27:29;97273.59;;;12.20;68.97
71938;BME280;59810;48.800;9.086;2023-04-28T04:29:56;97277.41;;;12.29;68.76
71938;BME280;59810;48.800;9.086;2023-04-28T04:32:22;97283.91;;;12.38;69.33
71938;BME280;59810;48.800;9.086;2023-04-28T04:34:47;97270.91;;;12.45;67.83
71938;BME280;59810;48.800;9.086;2023-04-28T04:37:13;97271.47;;;12.52;67.93
71938;BME280;59810;48.800;9.086;2023-04-28T04:39:38;97275.25;;;12.56;67.99
71938;BME280;59810;48.800;9.086;2023-04-28T04:42:06;97279.03;;;12.60;67.55
71938;BME280;59810;48.800;9.086;2023-04-28T04:44:31;97277.94;;;12.61;67.96
71938;BME280;59810;48.800;9.086;2023-04-28T04:46:56;97275.78;;;12.63;68.32
71938;BME280;59810;48.800;9.086;2023-04-28T04:49:22;97275.50;;;12.65;68.03
71938;BME280;59810;48.800;9.086;2023-04-28T04:51:47;97270.09;;;12.65;68.35
71938;BME280;59810;48.800;9.086;2023-04-28T04:54:12;97267.66;;;12.63;68.80
71938;BME280;59810;48.800;9.086;2023-04-28T04:56:40;97262.25;;;12.58;69.69
71938;BME280;59810;48.800;9.086;2023-04-28T04:59:06;97256.28;;;12.56;70.67
71938;BME280;59810;48.800;9.086;2023-04-28T05:01:32;97264.41;;;12.51;71.27
71938;BME280;59810;48.800;9.086;2023-04-28T05:03:59;97273.09;;;12.48;72.06
71938;BME280;59810;48.800;9.086;2023-04-28T05:06:25;97271.47;;;12.42;73.20
71938;BME280;59810;48.800;9.086;2023-04-28T05:08:51;97269.56;;;12.37;73.95
71938;BME280;59810;48.800;9.086;2023-04-28T05:11:16;97276.31;;;12.30;75.12
71938;BME280;59810;48.800;9.086;2023-04-28T05:13:42;97264.41;;;12.21;77.07
71938;BME280;59810;48.800;9.086;2023-04-28T05:16:10;97267.91;;;12.16;77.65
71938;BME280;59810;48.800;9.086;2023-04-28T05:18:38;97278.47;;;12.07;78.34
71938;BME280;59810;48.800;9.086;2023-04-28T05:21:03;97279.53;;;12.06;78.29
71938;BME280;59810;48.800;9.086;2023-04-28T05:23:29;97275.72;;;12.02;80.03
71938;BME280;59810;48.800;9.086;2023-04-28T05:25:54;97269.22;;;11.93;82.02
71938;BME280;59810;48.800;9.086;2023-04-28T05:28:23;97268.69;;;11.91;81.87
71938;BME280;59810;48.800;9.086;2023-04-28T05:30:50;97269.22;;;11.88;82.25
71938;BME280;59810;48.800;9.086;2023-04-28T05:33:18;97269.75;;;11.85;82.52
71938;BME280;59810;48.800;9.086;2023-04-28T05:35:47;97273.00;;;11.82;82.98
71938;BME280;59810;48.800;9.086;2023-04-28T05:38:13;97276.78;;;11.81;83.47
71938;BME280;59810;48.800;9.086;2023-04-28T05:40:38;97276.78;;;11.81;83.46
71938;BME280;59810;48.800;9.086;2023-04-28T05:43:06;97270.28;;;11.82;83.75
71938;BME280;59810;48.800;9.086;2023-04-28T05:45:31;97267.59;;;11.82;84.02
71938;BME280;59810;48.800;9.086;2023-04-28T05:47:59;97266.50;;;11.83;83.93
71938;BME280;59810;48.800;9.086;2023-04-28T05:50:25;97264.34;;;11.85;84.50
71938;BME280;59810;48.800;9.086;2023-04-28T05:52:50;97260.81;;;11.90;84.66
71938;BME280;59810;48.800;9.086;2023-04-28T05:55:15;97249.47;;;11.93;84.65
71938;BME280;59810;48.800;9.086;2023-04-28T05:57:41;97249.47;;;11.93;84.89
71938;BME280;59810;48.800;9.086;2023-04-28T06:00:07;97247.31;;;12.00;84.49
71938;BME280;59810;48.800;9.086;2023-04-28T06:02:32;97254.34;;;12.01;84.41
71938;BME280;59810;48.800;9.086;2023-04-28T06:04:57;97251.94;;;12.04;84.89
71938;BME280;59810;48.800;9.086;2023-04-28T06:07:23;97252.50;;;12.06;84.85
71938;BME280;59810;48.800;9.086;2023-04-28T06:09:48;97251.41;;;12.07;84.74
71938;BME280;59810;48.800;9.086;2023-04-28T06:12:14;97240.31;;;12.09;85.01
71938;BME280;59810;48.800;9.086;2023-04-28T06:14:39;97250.31;;;12.08;86.20
71938;BME280;59810;48.800;9.086;2023-04-28T06:17:04;97251.13;;;12.04;87.49
71938;BME280;59810;48.800;9.086;2023-04-28T06:19:30;97244.34;;;12.01;87.90
71938;BME280;59810;48.800;9.086;2023-04-28T06:21:55;97250.03;;;12.00;88.04
71938;BME280;59810;48.800;9.086;2023-04-28T06:24:21;97243.84;;;12.04;87.65
71938;BME280;59810;48.800;9.086;2023-04-28T06:26:48;97238.16;;;12.06;87.68
71938;BME280;59810;48.800;9.086;2023-04-28T06:29:14;97240.84;;;12.06;88.18
71938;BME280;59810;48.800;9.086;2023-04-28T06:31:39;97235.16;;;12.12;87.80
71938;BME280;59810;48.800;9.086;2023-04-28T06:34:04;97241.66;;;12.17;87.52
71938;BME280;59810;48.800;9.086;2023-04-28T06:36:30;97231.91;;;12.21;87.44
71938;BME280;59810;48.800;9.086;2023-04-28T06:38:57;97235.44;;;12.26;87.29
71938;BME280;59810;48.800;9.086;2023-04-28T06:41:25;97237.88;;;12.28;87.40
71938;BME280;59810;48.800;9.086;2023-04-28T06:43:50;97238.69;;;12.33;87.66
71938;BME280;59810;48.800;9.086;2023-04-28T06:46:15;97233.81;;;12.35;86.64
71938;BME280;59810;48.800;9.086;2023-04-28T06:48:42;97230.84;;;12.37;86.37
71938;BME280;59810;48.800;9.086;2023-04-28T06:51:10;97224.34;;;12.33;87.03
71938;BME280;59810;48.800;9.086;2023-04-28T06:53:35;97230.06;;;12.36;87.41
71938;BME280;59810;48.800;9.086;2023-04-28T06:56:01;97231.66;;;12.37;87.07
71938;BME280;59810;48.800;9.086;2023-04-28T06:58:27;97221.09;;;12.46;87.01
71938;BME280;59810;48.800;9.086;2023-04-28T07:00:52;97225.97;;;12.49;86.50
71938;BME280;59810;48.800;9.086;2023-04-28T07:03:18;97223.81;;;12.51;86.68
71938;BME280;59810;48.800;9.086;2023-04-28T07:05:43;97212.41;;;12.59;86.31
71938;BME280;59810;48.800;9.086;2023-04-28T07:08:09;97211.31;;;12.60;86.12
71938;BME280;59810;48.800;9.086;2023-04-28T07:10:34;97218.63;;;12.65;86.58
71938;BME280;59810;48.800;9.086;2023-04-28T07:13:00;97214.31;;;12.69;85.90
71938;BME280;59810;48.800;9.086;2023-04-28T07:15:25;97215.66;;;12.71;85.71
71938;BME280;59810;48.800;9.086;2023-04-28T07:17:52;97210.50;;;12.75;85.75
71938;BME280;59810;48.800;9.086;2023-04-28T07:20:18;97216.97;;;12.84;85.48
71938;BME280;59810;48.800;9.086;2023-04-28T07:22:43;97220.75;;;12.88;85.21
71938;BME280;59810;48.800;9.086;2023-04-28T07:25:09;97211.81;;;12.93;85.30
71938;BME280;59810;48.800;9.086;2023-04-28T07:27:35;97218.84;;;12.94;86.20
71938;BME280;59810;48.800;9.086;2023-04-28T07:30:01;97219.41;;;13.01;85.62
71938;BME280;59810;48.800;9.086;2023-04-28T07:32:26;97211.50;;;12.99;86.01
71938;BME280;59810;48.800;9.086;2023-04-28T07:34:52;97205.00;;;13.05;85.34
71938;BME280;59810;48.800;9.086;2023-04-28T07:37:17;97209.88;;;13.08;86.29
71938;BME280;59810;48.800;9.086;2023-04-28T07:39:42;97217.19;;;13.08;86.64
71938;BME280;59810;48.800;9.086;2023-04-28T07:42:08;97216.38;;;13.07;86.94
71938;BME280;59810;48.800;9.086;2023-04-28T07:44:34;97219.34;;;13.11;87.52
71938;BME280;59810;48.800;9.086;2023-04-28T07:47:00;97209.88;;;13.08;87.68
71938;BME280;59810;48.800;9.086;2023-04-28T07:49:29;97213.16;;;13.05;88.05
71938;BME280;59810;48.800;9.086;2023-04-28T07:51:55;97221.00;;;13.02;88.93
71938;BME280;59810;48.800;9.086;2023-04-28T07:54:24;97213.69;;;12.97;90.28
71938;BME280;59810;48.800;9.086;2023-04-28T07:56:49;97225.88;;;12.95;91.18
71938;BME280;59810;48.800;9.086;2023-04-28T07:59:20;97228.34;;;12.86;92.21
71938;BME280;59810;48.800;9.086;2023-04-28T08:01:46;97224.88;;;12.70;93.53
71938;BME280;59810;48.800;9.086;2023-04-28T08:04:13;97225.41;;;12.67;95.27
71938;BME280;59810;48.800;9.086;2023-04-28T08:06:39;97219.47;;;12.50;96.74
71938;BME280;59810;48.800;9.086;2023-04-28T08:09:04;97231.41;;;12.39;99.01
71938;BME280;59810;48.800;9.086;2023-04-28T08:11:30;97235.16;;;12.33;99.64
71938;BME280;59810;48.800;9.086;2023-04-28T08:13:56;97238.69;;;12.18;100.00
71938;BME280;59810;48.800;9.086;2023-04-28T08:16:25;97240.59;;;12.12;100.00
71938;BME280;59810;48.800;9.086;2023-04-28T08:18:51;97242.75;;;12.10;100.00
71938;BME280;59810;48.800;9.086;2023-04-28T08:21:16;97255.19;;;12.11;100.00
71938;BME280;59810;48.800;9.086;2023-04-28T08:23:42;97264.66;;;12.14;100.00
71938;BME280;59810;48.800;9.086;2023-04-28T08:26:07;97270.88;;;12.09;100.00
71938;BME280;59810;48.800;9.086;2023-04-28T08:28:33;97289.84;;;12.14;100.00
71938;BME280;59810;48.800;9.086;2023-04-28T08:30:58;97303.38;;;12.14;100.00
71938;BME280;59810;48.800;9.086;2023-04-28T08:33:25;97297.94;;;12.09;100.00
71938;BME280;59810;48.800;9.086;2023-04-28T08:35:50;97293.03;;;11.96;100.00
71938;BME280;59810;48.800;9.086;2023-04-28T08:38:15;97293.03;;;11.91;100.00
71938;BME280;59810;48.800;9.086;2023-04-28T08:40:42;97288.69;;;11.85;100.00
71938;BME280;59810;48.800;9.086;2023-04-28T08:43:08;97288.97;;;11.89;100.00
71938;BME280;59810;48.800;9.086;2023-04-28T08:45:43;97300.88;;;11.98;100.00
71938;BME280;59810;48.800;9.086;2023-04-28T08:48:19;97297.13;;;12.04;100.00
71938;BME280;59810;48.800;9.086;2023-04-28T08:50:54;97306.06;;;12.09;100.00
71938;BME280;59810;48.800;9.086;2023-04-28T08:53:24;97302.84;;;12.18;100.00
71938;BME280;59810;48.800;9.086;2023-04-28T08:55:53;97312.03;;;12.22;100.00
71938;BME280;59810;48.800;9.086;2023-04-28T08:58:25;97309.06;;;12.23;100.00
71938;BME280;59810;48.800;9.086;2023-04-28T09:00:53;97317.19;;;12.23;100.00
71938;BME280;59810;48.800;9.086;2023-04-28T09:03:19;97308.53;;;12.21;100.00
71938;BME280;59810;48.800;9.086;2023-04-28T09:05:45;97313.13;;;12.21;100.00
71938;BME280;59810;48.800;9.086;2023-04-28T09:08:11;97316.38;;;12.28;100.00
71938;BME280;59810;48.800;9.086;2023-04-28T09:10:37;97315.28;;;12.34;100.00
71938;BME280;59810;48.800;9.086;2023-04-28T09:13:02;97306.13;;;12.40;100.00
71938;BME280;59810;48.800;9.086;2023-04-28T09:17:53;97317.50;;;12.47;100.00
71938;BME280;59810;48.800;9.086;2023-04-28T09:20:23;97317.50;;;12.47;100.00
71938;BME280;59810;48.800;9.086;2023-04-28T09:22:52;97312.34;;;12.51;100.00
71938;BME280;59810;48.800;9.086;2023-04-28T09:25:20;97314.78;;;12.57;100.00
71938;BME280;59810;48.800;9.086;2023-04-28T09:27:50;97314.53;;;12.69;100.00
71938;BME280;59810;48.800;9.086;2023-04-28T09:30:17;97315.34;;;12.80;100.00
71938;BME280;59810;48.800;9.086;2023-04-28T09:33:03;97314.75;;;12.98;100.00
71938;BME280;59810;48.800;9.086;2023-04-28T09:35:39;97306.06;;;13.16;100.00
71938;BME280;59810;48.800;9.086;2023-04-28T09:38:05;97306.34;;;13.35;100.00
71938;BME280;59810;48.800;9.086;2023-04-28T09:40:30;97316.56;;;13.58;100.00
71938;BME280;59810;48.800;9.086;2023-04-28T09:42:56;97310.81;;;13.75;100.00
71938;BME280;59810;48.800;9.086;2023-04-28T09:45:25;97312.88;;;13.98;100.00
71938;BME280;59810;48.800;9.086;2023-04-28T09:47:51;97316.00;;;14.21;100.00
71938;BME280;59810;48.800;9.086;2023-04-28T09:50:16;97315.34;;;14.39;100.00
71938;BME280;59810;48.800;9.086;2023-04-28T09:52:43;97306.88;;;14.51;100.00
71938;BME280;59810;48.800;9.086;2023-04-28T09:55:13;97309.44;;;14.71;98.94
71938;BME280;59810;48.800;9.086;2023-04-28T09:57:39;97300.81;;;14.93;96.83
71938;BME280;59810;48.800;9.086;2023-04-28T10:00:06;97300.88;;;15.17;94.64
71938;BME280;59810;48.800;9.086;2023-04-28T10:02:39;97303.22;;;15.29;95.25
71938;BME280;59810;48.800;9.086;2023-04-28T10:05:06;97302.22;;;15.43;94.49
71938;BME280;59810;48.800;9.086;2023-04-28T10:07:33;97311.53;;;15.37;95.59
71938;BME280;59810;48.800;9.086;2023-04-28T10:10:00;97313.84;;;15.49;96.15
71938;BME280;59810;48.800;9.086;2023-04-28T10:12:26;97310.50;;;15.57;95.34
71938;BME280;59810;48.800;9.086;2023-04-28T10:14:52;97315.63;;;15.64;95.25
71938;BME280;59810;48.800;9.086;2023-04-28T10:17:21;97308.03;;;15.61;93.16
71938;BME280;59810;48.800;9.086;2023-04-28T10:19:51;97304.41;;;15.70;93.30
71938;BME280;59810;48.800;9.086;2023-04-28T10:27:33;97302.00;;;15.87;89.19
71938;BME280;59810;48.800;9.086;2023-04-28T10:30:19;97304.25;;;15.80;89.25
71938;BME280;59810;48.800;9.086;2023-04-28T10:32:46;97307.56;;;15.77;90.77
71938;BME280;59810;48.800;9.086;2023-04-28T10:40:34;97309.88;;;15.89;91.09
71938;BME280;59810;48.800;9.086;2023-04-28T10:43:00;97300.38;;;15.86;89.86
71938;BME280;59810;48.800;9.086;2023-04-28T10:48:16;97303.78;;;15.97;89.42
71938;BME280;59810;48.800;9.086;2023-04-28T10:56:07;97312.03;;;16.11;85.57
71938;BME280;59810;48.800;9.086;2023-04-28T10:58:33;97314.03;;;16.05;86.83
71938;BME280;59810;48.800;9.086;2023-04-28T11:03:59;97315.28;;;16.13;87.00
71938;BME280;59810;48.800;9.086;2023-04-28T11:06:37;97313.50;;;16.22;87.37
71938;BME280;59810;48.800;9.086;2023-04-28T11:11:38;97310.00;;;16.40;85.07
71938;BME280;59810;48.800;9.086;2023-04-28T11:16:56;97310.72;;;16.65;84.98
71938;BME280;59810;48.800;9.086;2023-04-28T11:19:26;97307.16;;;16.83;80.70
71938;BME280;59810;48.800;9.086;2023-04-28T11:21:56;97314.19;;;16.70;82.99
71938;BME280;59810;48.800;9.086;2023-04-28T11:24:26;97306.81;;;16.71;82.51
71938;BME280;59810;48.800;9.086;2023-04-28T11:26:53;97305.94;;;16.75;81.37
71938;BME280;59810;48.800;9.086;2023-04-28T11:31:57;97308.97;;;16.74;80.86
71938;BME280;59810;48.800;9.086;2023-04-28T11:34:23;97310.16;;;16.68;80.85
71938;BME280;59810;48.800;9.086;2023-04-28T11:36:52;97303.06;;;16.67;81.45
71938;BME280;59810;48.800;9.086;2023-04-28T11:39:30;97301.16;;;16.67;79.76
71938;BME280;59810;48.800;9.086;2023-04-28T11:41:57;97304.75;;;16.82;78.31
71938;BME280;59810;48.800;9.086;2023-04-28T11:44:26;97299.94;;;16.92;78.10
71938;BME280;59810;48.800;9.086;2023-04-28T11:49:27;97303.00;;;17.04;78.44
71938;BME280;59810;48.800;9.086;2023-04-28T11:51:54;97304.09;;;17.03;78.97
71938;BME280;59810;48.800;9.086;2023-04-28T11:54:27;97301.50;;;17.12;77.63
71938;BME280;59810;48.800;9.086;2023-04-28T11:56:56;97307.84;;;17.07;77.25
71938;BME280;59810;48.800;9.086;2023-04-28T11:59:32;97302.19;;;17.18;77.75
71938;BME280;59810;48.800;9.086;2023-04-28T12:02:00;97304.25;;;17.26;78.51
71938;BME280;59810;48.800;9.086;2023-04-28T12:07:15;97301.28;;;17.22;74.84
71938;BME280;59810;48.800;9.086;2023-04-28T12:12:30;97299.63;;;17.26;74.19
71938;BME280;59810;48.800;9.086;2023-04-28T12:15:00;97294.56;;;17.33;72.85
71938;BME280;59810;48.800;9.086;2023-04-28T12:17:40;97299.13;;;17.38;73.50
71938;BME280;59810;48.800;9.086;2023-04-28T12:20:10;97297.78;;;17.49;73.60
71938;BME280;59810;48.800;9.086;2023-04-28T12:22:56;97292.16;;;17.59;74.36
71938;BME280;59810;48.800;9.086;2023-04-28T12:25:44;97296.69;;;17.50;73.82
71938;BME280;59810;48.800;9.086;2023-04-28T12:28:12;97292.78;;;17.56;72.17
71938;BME280;59810;48.800;9.086;2023-04-28T12:30:40;97290.53;;;17.58;72.55
71938;BME280;59810;48.800;9.086;2023-04-28T12:33:26;97302.66;;;17.52;71.64
71938;BME280;59810;48.800;9.086;2023-04-28T12:35:54;97303.25;;;17.49;71.74
71938;BME280;59810;48.800;9.086;2023-04-28T12:38:20;97305.47;;;17.33;72.79
71938;BME280;59810;48.800;9.086;2023-04-28T12:40:46;97302.53;;;17.30;71.43
71938;BME280;59810;48.800;9.086;2023-04-28T12:43:11;97305.88;;;17.27;73.32
71938;BME280;59810;48.800;9.086;2023-04-28T12:45:37;97315.34;;;17.16;73.54
71938;BME280;59810;48.800;9.086;2023-04-28T12:48:02;97307.84;;;17.07;73.41
71938;BME280;59810;48.800;9.086;2023-04-28T12:50:27;97305.22;;;17.02;75.46
71938;BME280;59810;48.800;9.086;2023-04-28T12:52:56;97304.19;;;16.66;83.42
71938;BME280;59810;48.800;9.086;2023-04-28T12:55:22;97310.50;;;16.42;86.23
71938;BME280;59810;48.800;9.086;2023-04-28T12:57:47;97299.69;;;16.37;87.43
71938;BME280;59810;48.800;9.086;2023-04-28T13:00:15;97304.69;;;16.30;87.99
71938;BME280;59810;48.800;9.086;2023-04-28T13:02:47;97293.34;;;16.23;89.52
71938;BME280;59810;48.800;9.086;2023-04-28T13:05:12;97289.38;;;16.34;90.97
71938;BME280;59810;48.800;9.086;2023-04-28T13:07:38;97268.59;;;16.38;92.30
71938;BME280;59810;48.800;9.086;2023-04-28T13:10:04;97269.09;;;16.59;91.48
71938;BME280;59810;48.800;9.086;2023-04-28T13:12:30;97256.16;;;16.84;89.35
71938;BME280;59810;48.800;9.086;2023-04-28T13:14:57;97256.13;;;17.02;89.76
71938;BME280;59810;48.800;9.086;2023-04-28T13:17:22;97268.97;;;17.16;91.26
71938;BME280;59810;48.800;9.086;2023-04-28T13:19:48;97279.19;;;17.24;87.50
71938;BME280;59810;48.800;9.086;2023-04-28T13:22:13;97266.97;;;17.62;86.35
71938;BME280;59810;48.800;9.086;2023-04-28T13:24:40;97270.31;;;17.59;85.62
71938;BME280;59810;48.800;9.086;2023-04-28T13:27:05;97272.94;;;17.37;86.75
71938;BME280;59810;48.800;9.086;2023-04-28T13:29:34;97274.72;;;17.14;86.67
71938;BME280;59810;48.800;9.086;2023-04-28T13:32:00;97282.09;;;17.14;88.60
71938;BME280;59810;48.800;9.086;2023-04-28T13:34:26;97278.63;;;16.94;87.89
71938;BME280;59810;48.800;9.086;2023-04-28T13:36:53;97267.88;;;16.84;87.94
71938;BME280;59810;48.800;9.086;2023-04-28T13:39:20;97272.69;;;16.55;88.45
71938;BME280;59810;48.800;9.086;2023-04-28T13:41:50;97268.88;;;16.56;89.06